createdAt,value
2023-04-29T00:00:16.829Z,1.27
2023-04-29T00:01:16.814Z,1.27
2023-04-29T00:02:16.789Z,1.26
2023-04-29T00:03:17.048Z,1.24
2023-04-29T00:04:16.876Z,1.24
2023-04-29T00:05:17.140Z,1.26
2023-04-29T00:06:16.952Z,1.25
2023-04-29T00:07:16.754Z,1.27
2023-04-29T00:08:16.761Z,1.26
2023-04-29T00:09:16.743Z,1.26
2023-04-29T00:10:16.761Z,1.24
2023-04-29T00:11:16.718Z,1.26
2023-04-29T00:12:16.700Z,1.22
2023-04-29T00:13:16.735Z,1.24
2023-04-29T00:14:16.715Z,1.26
2023-04-29T00:15:16.744Z,1.22
2023-04-29T00:16:16.743Z,1.25
2023-04-29T00:17:16.685Z,1.25
2023-04-29T00:18:16.753Z,1.22
2023-04-29T00:19:16.675Z,1.23
2023-04-29T00:20:16.661Z,1.24
2023-04-29T00:21:16.664Z,1.23
2023-04-29T00:22:16.665Z,1.22
2023-04-29T00:23:16.649Z,1.21
2023-04-29T00:24:16.646Z,1.23
2023-04-29T00:25:16.666Z,1.22
2023-04-29T00:26:16.713Z,1.24
2023-04-29T00:27:16.644Z,1.24
2023-04-29T00:28:16.615Z,1.21
2023-04-29T00:29:16.615Z,1.23
2023-04-29T00:30:16.630Z,1.20
2023-04-29T00:31:16.678Z,1.18
2023-04-29T00:32:16.584Z,1.22
2023-04-29T00:33:16.592Z,1.20
2023-04-29T00:34:16.560Z,1.20
2023-04-29T00:35:16.603Z,1.18
2023-04-29T00:36:16.571Z,1.20
2023-04-29T00:37:16.552Z,1.20
2023-04-29T00:38:16.581Z,1.19
2023-04-29T00:39:16.556Z,1.18
2023-04-29T00:40:16.562Z,1.20
2023-04-29T00:41:16.556Z,1.18
2023-04-29T00:42:16.536Z,1.18
2023-04-29T00:43:16.541Z,1.17
2023-04-29T00:44:16.502Z,1.18
2023-04-29T00:45:16.525Z,1.17
2023-04-29T00:46:16.525Z,1.17
2023-04-29T00:47:16.498Z,1.14
2023-04-29T00:48:16.483Z,1.18
2023-04-29T00:49:16.505Z,1.17
2023-04-29T00:50:16.488Z,1.18
2023-04-29T00:51:16.446Z,1.16
2023-04-29T00:52:16.430Z,1.15
2023-04-29T00:53:16.436Z,1.16
2023-04-29T00:54:16.441Z,1.16
2023-04-29T00:55:16.469Z,1.14
2023-04-29T00:56:16.447Z,1.13
2023-04-29T00:57:16.440Z,1.17
2023-04-29T00:58:16.426Z,1.14
2023-04-29T00:59:16.381Z,1.15
2023-04-29T01:00:16.395Z,1.16
2023-04-29T01:01:16.503Z,1.15
2023-04-29T01:02:16.385Z,1.15
2023-04-29T01:03:16.459Z,1.17
2023-04-29T01:04:16.420Z,1.13
2023-04-29T01:05:16.386Z,1.15
2023-04-29T01:06:16.368Z,1.13
2023-04-29T01:07:16.366Z,1.16
2023-04-29T01:08:17.889Z,1.13
2023-04-29T01:09:16.357Z,1.15
2023-04-29T01:10:16.343Z,1.13
2023-04-29T01:11:16.335Z,1.14
2023-04-29T01:12:16.333Z,1.13
2023-04-29T01:13:16.307Z,1.11
2023-04-29T01:14:16.317Z,1.13
2023-04-29T01:15:16.304Z,1.14
2023-04-29T01:16:16.372Z,1.11
2023-04-29T01:17:16.298Z,1.08
2023-04-29T01:18:16.252Z,1.11
2023-04-29T01:19:16.274Z,1.10
2023-04-29T01:20:16.285Z,1.10
2023-04-29T01:21:16.264Z,1.09
2023-04-29T01:22:16.229Z,1.10
2023-04-29T01:23:16.261Z,1.09
2023-04-29T01:24:16.244Z,1.09
2023-04-29T01:25:16.262Z,1.11
2023-04-29T01:26:16.215Z,1.08
2023-04-29T01:27:16.262Z,1.08
2023-04-29T01:28:16.202Z,1.09
2023-04-29T01:29:16.171Z,1.10
2023-04-29T01:30:16.222Z,1.08
2023-04-29T01:31:16.206Z,1.09
2023-04-29T01:32:16.244Z,1.06
2023-04-29T01:33:16.161Z,1.10
2023-04-29T01:34:16.176Z,1.08
2023-04-29T01:35:16.167Z,1.10
2023-04-29T01:36:16.152Z,1.09
2023-04-29T01:37:16.120Z,1.08
2023-04-29T01:38:16.138Z,1.09
2023-04-29T01:39:16.149Z,1.09
2023-04-29T01:40:16.138Z,1.05
2023-04-29T01:41:16.133Z,1.05
2023-04-29T01:42:16.144Z,1.04
2023-04-29T01:43:16.114Z,1.04
2023-04-29T01:44:16.104Z,1.06
2023-04-29T01:45:16.124Z,1.06
2023-04-29T01:46:16.098Z,1.06
2023-04-29T01:47:16.081Z,1.06
2023-04-29T01:48:16.063Z,1.06
2023-04-29T01:49:16.068Z,1.04
2023-04-29T01:50:16.060Z,1.07
2023-04-29T01:51:16.076Z,1.06
2023-04-29T01:52:16.029Z,1.07
2023-04-29T01:53:16.076Z,1.05
2023-04-29T01:54:16.045Z,1.04
2023-04-29T01:55:16.047Z,1.05
2023-04-29T01:56:16.028Z,1.06
2023-04-29T01:57:16.021Z,1.04
2023-04-29T01:58:16.025Z,1.05
2023-04-29T01:59:15.999Z,1.04
2023-04-29T02:00:16.006Z,1.03
2023-04-29T02:01:16.095Z,1.03
2023-04-29T02:02:16.001Z,1.05
2023-04-29T02:03:16.024Z,1.03
2023-04-29T02:04:15.996Z,1.04
2023-04-29T02:05:15.989Z,1.04
2023-04-29T02:06:15.967Z,1.02
2023-04-29T02:07:15.955Z,1.02
2023-04-29T02:08:15.937Z,1.02
2023-04-29T02:09:15.969Z,1.04
2023-04-29T02:10:15.945Z,1.03
2023-04-29T02:11:15.927Z,1.02
2023-04-29T02:12:17.617Z,1.03
2023-04-29T02:13:15.884Z,1.02
2023-04-29T02:14:15.881Z,1.03
2023-04-29T02:15:15.870Z,1.03
2023-04-29T02:16:15.918Z,1.03
2023-04-29T02:17:15.906Z,1.01
2023-04-29T02:18:15.850Z,1.00
2023-04-29T02:19:15.864Z,1.02
2023-04-29T02:20:15.863Z,1.02
2023-04-29T02:21:15.875Z,1.00
2023-04-29T02:22:15.870Z,1.00
2023-04-29T02:23:15.860Z,1.00
2023-04-29T02:24:15.872Z,1.02
2023-04-29T02:25:15.856Z,1.00
2023-04-29T02:26:15.862Z,0.99
2023-04-29T02:27:15.825Z,0.99
2023-04-29T02:28:15.820Z,1.00
2023-04-29T02:29:15.801Z,0.99
2023-04-29T02:30:15.821Z,1.01
2023-04-29T02:31:15.825Z,0.99
2023-04-29T02:32:15.836Z,0.98
2023-04-29T02:33:15.792Z,0.98
2023-04-29T02:34:15.789Z,0.99
2023-04-29T02:35:15.808Z,0.99
2023-04-29T02:36:15.827Z,0.98
2023-04-29T02:37:15.834Z,0.98
2023-04-29T02:38:15.797Z,0.97
2023-04-29T02:39:15.800Z,0.98
2023-04-29T02:40:15.787Z,0.98
2023-04-29T02:41:15.787Z,0.95
2023-04-29T02:42:15.779Z,0.98
2023-04-29T02:43:15.790Z,0.96
2023-04-29T02:44:15.760Z,0.98
2023-04-29T02:45:15.825Z,0.95
2023-04-29T02:46:15.815Z,0.95
2023-04-29T02:47:15.781Z,0.98
2023-04-29T02:48:15.785Z,0.97
2023-04-29T02:49:15.781Z,0.96
2023-04-29T02:50:15.772Z,0.96
2023-04-29T02:51:15.796Z,0.93
2023-04-29T02:52:15.792Z,0.95
2023-04-29T02:53:15.753Z,0.93
2023-04-29T02:54:15.774Z,0.96
2023-04-29T02:55:15.763Z,0.96
2023-04-29T02:56:15.776Z,0.96
2023-04-29T02:57:15.790Z,0.97
2023-04-29T02:58:15.756Z,0.95
2023-04-29T02:59:15.766Z,0.94
2023-04-29T03:00:15.779Z,0.95
2023-04-29T03:01:15.830Z,0.94
2023-04-29T03:02:15.777Z,0.94
2023-04-29T03:03:15.901Z,0.93
2023-04-29T03:04:15.899Z,0.97
2023-04-29T03:05:15.756Z,0.94
2023-04-29T03:06:15.741Z,0.93
2023-04-29T03:07:15.747Z,0.95
2023-04-29T03:08:15.730Z,0.92
2023-04-29T03:09:15.713Z,0.92
2023-04-29T03:10:15.768Z,0.93
2023-04-29T03:11:15.700Z,0.91
2023-04-29T03:12:15.674Z,0.92
2023-04-29T03:13:16.626Z,0.91
2023-04-29T03:14:15.693Z,0.93
2023-04-29T03:15:15.692Z,0.93
2023-04-29T03:16:15.736Z,0.94
2023-04-29T03:17:15.686Z,0.92
2023-04-29T03:18:15.697Z,0.92
2023-04-29T03:19:15.673Z,0.92
2023-04-29T03:20:15.683Z,0.92
2023-04-29T03:21:15.658Z,0.92
2023-04-29T03:22:15.654Z,0.91
2023-04-29T03:23:15.650Z,0.91
2023-04-29T03:24:15.653Z,0.92
2023-04-29T03:25:15.677Z,0.92
2023-04-29T03:26:15.693Z,0.90
2023-04-29T03:27:15.637Z,0.91
2023-04-29T03:28:15.647Z,0.91
2023-04-29T03:29:15.659Z,0.89
2023-04-29T03:30:15.656Z,0.87
2023-04-29T03:31:15.707Z,0.90
2023-04-29T03:32:15.634Z,0.91
2023-04-29T03:33:15.615Z,0.92
2023-04-29T03:34:15.642Z,0.90
2023-04-29T03:35:16.128Z,0.89
2023-04-29T03:36:15.622Z,0.88
2023-04-29T03:37:15.635Z,0.89
2023-04-29T03:38:15.650Z,0.91
2023-04-29T03:39:15.612Z,0.88
2023-04-29T03:40:15.637Z,0.90
2023-04-29T03:41:15.630Z,0.88
2023-04-29T03:42:15.638Z,0.86
2023-04-29T03:43:15.623Z,0.86
2023-04-29T03:44:15.624Z,0.88
2023-04-29T03:45:15.642Z,0.88
2023-04-29T03:46:15.627Z,0.87
2023-04-29T03:47:15.626Z,0.87
2023-04-29T03:48:15.606Z,0.87
2023-04-29T03:49:15.598Z,0.87
2023-04-29T03:50:15.597Z,0.86
2023-04-29T03:51:15.607Z,0.88
2023-04-29T03:52:15.617Z,0.87
2023-04-29T03:53:15.617Z,0.87
2023-04-29T03:54:15.596Z,0.87
2023-04-29T03:55:15.637Z,0.86
2023-04-29T03:56:17.339Z,0.87
2023-04-29T03:57:15.596Z,0.86
2023-04-29T03:58:15.598Z,0.86
2023-04-29T03:59:15.691Z,0.85
2023-04-29T04:00:15.630Z,0.86
2023-04-29T04:01:15.587Z,0.85
2023-04-29T04:02:15.620Z,0.86
2023-04-29T04:03:15.780Z,0.86
2023-04-29T04:04:15.782Z,0.88
2023-04-29T04:05:15.797Z,0.86
2023-04-29T04:06:15.587Z,0.86
2023-04-29T04:07:15.607Z,0.84
2023-04-29T04:08:15.590Z,0.83
2023-04-29T04:09:15.577Z,0.85
2023-04-29T04:10:15.628Z,0.86
2023-04-29T04:11:15.589Z,0.85
2023-04-29T04:12:15.601Z,0.83
2023-04-29T04:13:15.570Z,0.85
2023-04-29T04:14:15.572Z,0.85
2023-04-29T04:15:15.618Z,0.86
2023-04-29T04:16:15.688Z,0.82
2023-04-29T04:17:15.608Z,0.84
2023-04-29T04:18:15.667Z,0.84
2023-04-29T04:19:15.595Z,0.84
2023-04-29T04:20:15.636Z,0.83
2023-04-29T04:21:15.614Z,0.84
2023-04-29T04:22:15.614Z,0.85
2023-04-29T04:23:15.631Z,0.84
2023-04-29T04:24:15.603Z,0.83
2023-04-29T04:25:15.637Z,0.83
2023-04-29T04:26:15.657Z,0.84
2023-04-29T04:27:15.645Z,0.83
2023-04-29T04:28:15.621Z,0.82
2023-04-29T04:29:15.669Z,0.82
2023-04-29T04:30:15.661Z,0.84
2023-04-29T04:31:15.650Z,0.83
2023-04-29T04:32:15.661Z,0.83
2023-04-29T04:33:15.634Z,0.82
2023-04-29T04:34:15.653Z,0.83
2023-04-29T04:35:15.701Z,0.82
2023-04-29T04:36:15.666Z,0.83
2023-04-29T04:37:15.684Z,0.82
2023-04-29T04:38:15.686Z,0.82
2023-04-29T04:39:15.695Z,0.82
2023-04-29T04:40:15.684Z,0.81
2023-04-29T04:41:15.667Z,0.82
2023-04-29T04:42:15.694Z,0.80
2023-04-29T04:43:15.720Z,0.82
2023-04-29T04:44:15.725Z,0.81
2023-04-29T04:45:15.719Z,0.81
2023-04-29T04:46:15.840Z,0.80
2023-04-29T04:47:15.707Z,0.79
2023-04-29T04:48:15.707Z,0.82
2023-04-29T04:49:15.732Z,0.81
2023-04-29T04:50:15.724Z,0.80
2023-04-29T04:51:15.741Z,0.81
2023-04-29T04:52:15.749Z,0.79
2023-04-29T04:53:15.732Z,0.76
2023-04-29T04:54:15.725Z,0.79
2023-04-29T04:55:15.732Z,0.80
2023-04-29T04:56:15.740Z,0.78
2023-04-29T04:57:15.767Z,0.79
2023-04-29T04:58:15.742Z,0.80
2023-04-29T04:59:15.776Z,0.77
2023-04-29T05:00:15.766Z,0.80
2023-04-29T05:01:15.799Z,0.79
2023-04-29T05:02:15.800Z,0.78
2023-04-29T05:03:15.829Z,0.77
2023-04-29T05:04:15.822Z,0.77
2023-04-29T05:05:15.763Z,0.79
2023-04-29T05:06:15.771Z,0.79
2023-04-29T05:07:15.760Z,0.79
2023-04-29T05:08:15.776Z,0.78
2023-04-29T05:09:15.806Z,0.78
2023-04-29T05:10:15.761Z,0.78
2023-04-29T05:11:15.776Z,0.79
2023-04-29T05:12:15.776Z,0.76
2023-04-29T05:13:15.783Z,0.75
2023-04-29T05:14:15.754Z,0.78
2023-04-29T05:15:15.746Z,0.76
2023-04-29T05:16:15.803Z,0.77
2023-04-29T05:17:15.745Z,0.76
2023-04-29T05:18:15.747Z,0.77
2023-04-29T05:19:15.729Z,0.76
2023-04-29T05:20:15.754Z,0.75
2023-04-29T05:21:17.667Z,0.76
2023-04-29T05:22:15.735Z,0.76
2023-04-29T05:23:15.754Z,0.75
2023-04-29T05:24:15.751Z,0.75
2023-04-29T05:25:15.726Z,0.76
2023-04-29T05:26:15.717Z,0.74
2023-04-29T05:27:15.719Z,0.77
2023-04-29T05:28:15.711Z,0.77
2023-04-29T05:29:15.727Z,0.77
2023-04-29T05:30:15.735Z,0.75
2023-04-29T05:31:15.794Z,0.73
2023-04-29T05:32:15.714Z,0.74
2023-04-29T05:33:15.758Z,0.75
2023-04-29T05:34:15.710Z,0.74
2023-04-29T05:35:15.741Z,0.76
2023-04-29T05:36:15.758Z,0.75
2023-04-29T05:37:15.729Z,0.73
2023-04-29T05:38:15.727Z,0.75
2023-04-29T05:39:15.740Z,0.76
2023-04-29T05:40:15.724Z,0.75
2023-04-29T05:41:15.720Z,0.74
2023-04-29T05:42:15.738Z,0.73
2023-04-29T05:43:15.726Z,0.73
2023-04-29T05:44:15.735Z,0.74
2023-04-29T05:45:15.717Z,0.72
2023-04-29T05:46:15.768Z,0.74
2023-04-29T05:47:15.712Z,0.74
2023-04-29T05:48:15.745Z,0.73
2023-04-29T05:49:15.723Z,0.73
2023-04-29T05:50:15.761Z,0.73
2023-04-29T05:51:15.733Z,0.73
2023-04-29T05:52:15.736Z,0.74
2023-04-29T05:53:15.785Z,0.73
2023-04-29T05:54:15.758Z,0.74
2023-04-29T05:55:15.765Z,0.73
2023-04-29T05:56:15.718Z,0.72
2023-04-29T05:57:15.748Z,0.73
2023-04-29T05:58:15.752Z,0.75
2023-04-29T05:59:15.743Z,0.72
2023-04-29T06:00:15.722Z,0.72
2023-04-29T06:01:15.727Z,0.71
2023-04-29T06:02:15.761Z,0.73
2023-04-29T06:03:15.792Z,0.71
2023-04-29T06:04:15.872Z,0.73
2023-04-29T06:05:15.857Z,0.72
2023-04-29T06:06:15.870Z,0.72
2023-04-29T06:07:16.958Z,0.72
2023-04-29T06:08:15.755Z,0.72
2023-04-29T06:09:26.516Z,0.72
2023-04-29T06:10:16.787Z,0.72
2023-04-29T06:11:15.753Z,0.72
2023-04-29T06:12:15.744Z,0.71
2023-04-29T06:13:15.741Z,0.70
2023-04-29T06:14:15.761Z,0.71
2023-04-29T06:15:15.719Z,0.71
2023-04-29T06:16:15.772Z,0.72
2023-04-29T06:17:15.738Z,0.70
2023-04-29T06:18:15.726Z,0.71
2023-04-29T06:19:15.720Z,0.70
2023-04-29T06:20:16.316Z,0.69
2023-04-29T06:21:15.707Z,0.69
2023-04-29T06:22:15.699Z,0.69
2023-04-29T06:23:15.747Z,0.69
2023-04-29T06:24:15.687Z,0.71
2023-04-29T06:25:15.659Z,0.70
2023-04-29T06:26:15.638Z,0.71
2023-04-29T06:27:15.650Z,0.70
2023-04-29T06:28:15.636Z,0.69
2023-04-29T06:29:15.638Z,0.69
2023-04-29T06:30:15.621Z,0.70
2023-04-29T06:31:15.645Z,0.70
2023-04-29T06:32:15.613Z,0.70
2023-04-29T06:33:15.580Z,0.68
2023-04-29T06:34:15.601Z,0.70
2023-04-29T06:35:15.610Z,0.69
2023-04-29T06:36:15.616Z,0.69
2023-04-29T06:37:15.576Z,0.69
2023-04-29T06:38:15.568Z,0.69
2023-04-29T06:39:15.541Z,0.68
2023-04-29T06:40:15.570Z,0.66
2023-04-29T06:41:15.600Z,0.68
2023-04-29T06:42:15.538Z,0.67
2023-04-29T06:43:15.561Z,0.66
2023-04-29T06:44:15.542Z,0.67
2023-04-29T06:45:15.535Z,0.66
2023-04-29T06:46:15.586Z,0.67
2023-04-29T06:47:15.551Z,0.66
2023-04-29T06:48:15.582Z,0.66
2023-04-29T06:49:15.638Z,0.66
2023-04-29T06:50:15.681Z,0.65
2023-04-29T06:51:15.680Z,0.66
2023-04-29T06:52:15.729Z,0.67
2023-04-29T06:53:15.770Z,0.67
2023-04-29T06:54:15.798Z,0.65
2023-04-29T06:55:15.815Z,0.66
2023-04-29T06:56:17.083Z,0.65
2023-04-29T06:57:15.865Z,0.66
2023-04-29T06:58:15.900Z,0.66
2023-04-29T06:59:15.928Z,0.65
2023-04-29T07:00:15.983Z,0.66
2023-04-29T07:01:16.045Z,0.65
2023-04-29T07:02:16.049Z,0.65
2023-04-29T07:03:16.185Z,0.65
2023-04-29T07:04:16.190Z,0.66
2023-04-29T07:05:16.143Z,0.66
2023-04-29T07:06:16.156Z,0.65
2023-04-29T07:07:16.151Z,0.66
2023-04-29T07:08:16.183Z,0.65
2023-04-29T07:09:16.165Z,0.66
2023-04-29T07:10:16.192Z,0.64
2023-04-29T07:11:16.216Z,0.66
2023-04-29T07:12:16.250Z,0.66
2023-04-29T07:13:16.251Z,0.66
2023-04-29T07:14:16.276Z,0.66
2023-04-29T07:15:16.285Z,0.66
2023-04-29T07:16:16.354Z,0.67
2023-04-29T07:17:16.338Z,0.65
2023-04-29T07:18:16.375Z,0.65
2023-04-29T07:19:16.368Z,0.64
2023-04-29T07:20:16.421Z,0.66
2023-04-29T07:21:16.450Z,0.66
2023-04-29T07:22:16.447Z,0.66
2023-04-29T07:23:16.527Z,0.66
2023-04-29T07:24:16.471Z,0.66
2023-04-29T07:25:16.516Z,0.65
2023-04-29T07:26:16.543Z,0.65
2023-04-29T07:27:16.586Z,0.67
2023-04-29T07:28:16.600Z,0.65
2023-04-29T07:29:16.628Z,0.64
2023-04-29T07:30:16.694Z,0.66
2023-04-29T07:31:16.845Z,0.65
2023-04-29T07:32:16.747Z,0.65
2023-04-29T07:33:16.818Z,0.64
2023-04-29T07:34:16.795Z,0.65
2023-04-29T07:35:16.863Z,0.65
2023-04-29T07:36:16.879Z,0.64
2023-04-29T07:37:16.919Z,0.64
2023-04-29T07:38:16.987Z,0.64
2023-04-29T07:39:17.064Z,0.64
2023-04-29T07:40:17.102Z,0.66
2023-04-29T07:41:17.159Z,0.64
2023-04-29T07:42:17.196Z,0.64
2023-04-29T07:43:17.259Z,0.66
2023-04-29T07:44:17.334Z,0.66
2023-04-29T07:45:17.371Z,0.66
2023-04-29T07:46:17.461Z,0.63
2023-04-29T07:47:17.517Z,0.64
2023-04-29T07:48:17.557Z,0.65
2023-04-29T07:49:17.645Z,0.65
2023-04-29T07:50:17.678Z,0.65
2023-04-29T07:51:17.748Z,0.64
2023-04-29T07:52:17.801Z,0.66
2023-04-29T07:53:17.813Z,0.65
2023-04-29T07:54:17.903Z,0.65
2023-04-29T07:55:17.964Z,0.64
2023-04-29T07:56:18.033Z,0.65
2023-04-29T07:57:18.087Z,0.65
2023-04-29T07:58:18.172Z,0.64
2023-04-29T07:59:18.233Z,0.64
2023-04-29T08:00:18.314Z,0.64
2023-04-29T08:01:18.366Z,0.65
2023-04-29T08:02:18.463Z,0.64
2023-04-29T08:03:18.635Z,0.65
2023-04-29T08:04:18.711Z,0.65
2023-04-29T08:05:18.853Z,0.63
2023-04-29T08:06:18.932Z,0.64
2023-04-29T08:07:18.708Z,0.63
2023-04-29T08:08:18.785Z,0.64
2023-04-29T08:09:18.865Z,0.63
2023-04-29T08:10:18.934Z,0.65
2023-04-29T08:11:18.959Z,0.64
2023-04-29T08:12:19.048Z,0.64
2023-04-29T08:13:19.092Z,0.65
2023-04-29T08:14:19.192Z,0.65
2023-04-29T08:15:19.211Z,0.64
2023-04-29T08:16:19.422Z,0.64
2023-04-29T08:17:19.325Z,0.63
2023-04-29T08:18:19.396Z,0.64
2023-04-29T08:19:19.473Z,0.63
2023-04-29T08:20:19.519Z,0.63
2023-04-29T08:21:19.724Z,0.62
2023-04-29T08:22:19.622Z,0.64
2023-04-29T08:23:19.699Z,0.64
2023-04-29T08:24:19.769Z,0.65
2023-04-29T08:25:19.803Z,0.64
2023-04-29T08:26:19.987Z,0.64
2023-04-29T08:27:19.968Z,0.62
2023-04-29T08:28:20.015Z,0.64
2023-04-29T08:29:20.229Z,0.64
2023-04-29T08:30:20.109Z,0.64
2023-04-29T08:31:20.196Z,0.63
2023-04-29T08:32:20.359Z,0.63
2023-04-29T08:33:20.253Z,0.64
2023-04-29T08:34:20.353Z,0.63
2023-04-29T08:35:20.362Z,0.62
2023-04-29T08:36:20.429Z,0.63
2023-04-29T08:37:20.501Z,0.62
2023-04-29T08:38:20.516Z,0.63
2023-04-29T08:39:20.574Z,0.62
2023-04-29T08:40:20.654Z,0.63
2023-04-29T08:41:20.700Z,0.64
2023-04-29T08:42:20.773Z,0.64
2023-04-29T08:43:20.775Z,0.61
2023-04-29T08:44:20.914Z,0.63
2023-04-29T08:45:20.903Z,0.62
2023-04-29T08:46:21.096Z,0.64
2023-04-29T08:47:21.077Z,0.62
2023-04-29T08:48:21.140Z,0.62
2023-04-29T08:49:21.108Z,0.63
2023-04-29T08:50:21.187Z,0.62
2023-04-29T08:51:21.214Z,0.64
2023-04-29T08:52:21.248Z,0.63
2023-04-29T08:53:21.285Z,0.64
2023-04-29T08:54:21.327Z,0.62
2023-04-29T08:55:21.377Z,0.62
2023-04-29T08:56:21.425Z,0.63
2023-04-29T08:57:21.460Z,0.63
2023-04-29T08:58:21.493Z,0.62
2023-04-29T08:59:21.573Z,0.63
2023-04-29T09:00:21.599Z,0.62
2023-04-29T09:01:21.705Z,0.62
2023-04-29T09:02:21.804Z,0.62
2023-04-29T09:03:22.254Z,0.61
2023-04-29T09:04:21.815Z,0.63
2023-04-29T09:05:21.880Z,0.62
2023-04-29T09:06:21.874Z,0.63
2023-04-29T09:07:21.930Z,0.63
2023-04-29T09:08:21.961Z,0.63
2023-04-29T09:09:22.003Z,0.62
2023-04-29T09:10:22.041Z,0.62
2023-04-29T09:11:22.069Z,0.62
2023-04-29T09:12:22.101Z,0.62
2023-04-29T09:13:22.214Z,0.62
2023-04-29T09:14:22.216Z,0.60
2023-04-29T09:15:22.240Z,0.62
2023-04-29T09:16:22.272Z,0.61
2023-04-29T09:17:22.320Z,0.62
2023-04-29T09:18:22.369Z,0.60
2023-04-29T09:19:22.396Z,0.62
2023-04-29T09:20:22.421Z,0.62
2023-04-29T09:21:22.944Z,0.62
2023-04-29T09:22:22.509Z,0.61
2023-04-29T09:23:22.543Z,0.60
2023-04-29T09:24:22.613Z,0.60
2023-04-29T09:25:22.648Z,0.62
2023-04-29T09:26:22.784Z,0.61
2023-04-29T09:27:22.674Z,0.61
2023-04-29T09:28:22.719Z,0.61
2023-04-29T09:29:22.705Z,0.61
2023-04-29T09:30:22.736Z,0.61
2023-04-29T09:31:22.776Z,0.61
2023-04-29T09:32:22.867Z,0.61
2023-04-29T09:33:22.850Z,0.61
2023-04-29T09:34:22.902Z,0.61
2023-04-29T09:35:22.919Z,0.61
2023-04-29T09:36:22.935Z,0.61
2023-04-29T09:37:22.935Z,0.61
2023-04-29T09:38:23.000Z,0.60
2023-04-29T09:39:23.029Z,0.61
2023-04-29T09:40:23.030Z,0.61
2023-04-29T09:41:23.063Z,0.61
2023-04-29T09:42:23.160Z,0.60
2023-04-29T09:43:23.137Z,0.61
2023-04-29T09:44:23.182Z,0.60
2023-04-29T09:45:23.173Z,0.60
2023-04-29T09:46:23.253Z,0.60
2023-04-29T09:47:23.277Z,0.61
2023-04-29T09:48:23.276Z,0.60
2023-04-29T09:49:23.306Z,0.60
2023-04-29T09:50:23.327Z,0.59
2023-04-29T09:51:23.337Z,0.61
2023-04-29T09:52:23.352Z,0.59
2023-04-29T09:53:23.403Z,0.59
2023-04-29T09:54:23.422Z,0.59
2023-04-29T09:55:23.447Z,0.60
2023-04-29T09:56:23.454Z,0.60
2023-04-29T09:57:23.471Z,0.59
2023-04-29T09:58:23.479Z,0.59
2023-04-29T09:59:23.502Z,0.59
2023-04-29T10:00:23.518Z,0.59
2023-04-29T10:01:23.580Z,0.60
2023-04-29T10:02:23.586Z,0.58
2023-04-29T10:03:23.603Z,0.60
2023-04-29T10:04:23.609Z,0.59
2023-04-29T10:05:23.594Z,0.59
2023-04-29T10:06:23.611Z,0.59
2023-04-29T10:07:23.640Z,0.60
2023-04-29T10:08:23.659Z,0.60
2023-04-29T10:09:23.726Z,0.58
2023-04-29T10:10:23.683Z,0.60
2023-04-29T10:11:23.737Z,0.59
2023-04-29T10:12:23.740Z,0.59
2023-04-29T10:13:23.770Z,0.59
2023-04-29T10:14:23.782Z,0.58
2023-04-29T10:15:23.792Z,0.59
2023-04-29T10:16:23.907Z,0.58
2023-04-29T10:17:23.840Z,0.57
2023-04-29T10:18:23.864Z,0.59
2023-04-29T10:19:23.838Z,0.59
2023-04-29T10:20:23.861Z,0.57
2023-04-29T10:21:23.897Z,0.59
2023-04-29T10:22:23.849Z,0.58
2023-04-29T10:23:23.878Z,0.59
2023-04-29T10:24:23.927Z,0.59
2023-04-29T10:25:23.921Z,0.59
2023-04-29T10:26:23.934Z,0.58
2023-04-29T10:27:25.319Z,0.58
2023-04-29T10:28:23.954Z,0.58
2023-04-29T10:29:23.988Z,0.60
2023-04-29T10:30:23.957Z,0.59
2023-04-29T10:31:24.042Z,0.58
2023-04-29T10:32:24.022Z,0.58
2023-04-29T10:33:23.969Z,0.59
2023-04-29T10:35:36.928Z,0.50
2023-04-29T10:36:36.885Z,0.50
2023-04-29T10:37:36.940Z,0.50
2023-04-29T10:38:36.866Z,0.50
2023-04-29T10:39:36.855Z,0.50
2023-04-29T10:40:36.877Z,0.50
2023-04-29T10:41:36.914Z,0.51
2023-04-29T10:42:36.832Z,0.52
2023-04-29T10:43:36.852Z,0.51
2023-04-29T10:44:36.822Z,0.51
2023-04-29T10:45:36.832Z,0.51
2023-04-29T10:46:36.863Z,0.51
2023-04-29T10:47:36.828Z,0.50
2023-04-29T10:48:36.816Z,0.51
2023-04-29T10:49:36.782Z,0.50
2023-04-29T10:50:36.783Z,0.51
2023-04-29T10:51:36.816Z,0.51
2023-04-29T10:52:36.788Z,0.50
2023-04-29T10:53:36.788Z,0.52
2023-04-29T10:54:36.758Z,0.52
2023-04-29T10:55:36.758Z,0.50
2023-04-29T10:56:36.738Z,0.50
2023-04-29T10:57:36.728Z,0.51
2023-04-29T10:58:36.731Z,0.52
2023-04-29T10:59:36.714Z,0.52
2023-04-29T11:00:36.746Z,0.51
2023-04-29T11:01:36.719Z,0.51
2023-04-29T11:02:36.803Z,0.52
2023-04-29T11:03:36.891Z,0.51
2023-04-29T11:04:36.774Z,0.51
2023-04-29T11:05:36.713Z,0.51
2023-04-29T11:06:36.684Z,0.50
2023-04-29T11:07:36.707Z,0.52
2023-04-29T11:08:36.694Z,0.52
2023-04-29T11:09:36.649Z,0.51
2023-04-29T11:10:36.680Z,0.51
2023-04-29T11:11:36.685Z,0.51
2023-04-29T11:12:36.669Z,0.51
2023-04-29T11:13:36.659Z,0.51
2023-04-29T11:14:36.788Z,0.51
2023-04-29T11:15:36.632Z,0.51
2023-04-29T11:16:36.719Z,0.51
2023-04-29T11:17:36.658Z,0.51
2023-04-29T11:18:36.618Z,0.51
2023-04-29T11:19:36.721Z,0.51
2023-04-29T11:20:36.631Z,0.51
2023-04-29T11:21:37.129Z,0.51
2023-04-29T11:22:36.580Z,0.51
2023-04-29T11:23:36.576Z,0.51
2023-04-29T11:24:36.604Z,0.51
2023-04-29T11:25:39.307Z,0.51
2023-04-29T11:26:36.610Z,0.51
2023-04-29T11:27:36.582Z,0.51
2023-04-29T11:28:36.555Z,0.51
2023-04-29T11:29:36.555Z,0.51
2023-04-29T11:30:36.542Z,0.51
2023-04-29T11:31:36.601Z,0.52
2023-04-29T11:32:36.612Z,0.51
2023-04-29T11:33:36.562Z,0.51
2023-04-29T11:34:36.516Z,0.50
2023-04-29T11:35:36.492Z,0.51
2023-04-29T11:36:36.501Z,0.51
2023-04-29T11:37:36.517Z,0.51
2023-04-29T11:38:36.497Z,0.51
2023-04-29T11:39:36.489Z,0.52
2023-04-29T11:40:36.468Z,0.51
2023-04-29T11:41:36.479Z,0.51
2023-04-29T11:42:36.489Z,0.51
2023-04-29T11:43:36.460Z,0.51
2023-04-29T11:44:36.474Z,0.51
2023-04-29T11:45:36.460Z,0.51
2023-04-29T11:46:36.492Z,0.52
2023-04-29T11:47:36.450Z,0.52
2023-04-29T11:48:36.596Z,0.52
2023-04-29T11:49:36.429Z,0.51
2023-04-29T11:50:36.430Z,0.51
2023-04-29T11:51:36.430Z,0.51
2023-04-29T11:52:36.433Z,0.50
2023-04-29T11:53:36.375Z,0.52
2023-04-29T11:54:36.368Z,0.51
2023-04-29T11:55:36.392Z,0.50
2023-04-29T11:56:36.362Z,0.51
2023-04-29T11:57:36.389Z,0.51
2023-04-29T11:58:36.379Z,0.51
2023-04-29T11:59:36.366Z,0.52
2023-04-29T12:00:36.389Z,0.51
2023-04-29T12:01:36.370Z,0.51
2023-04-29T12:02:36.413Z,0.51
2023-04-29T12:03:36.554Z,0.51
2023-04-29T12:04:36.470Z,0.51
2023-04-29T12:05:36.352Z,0.51
2023-04-29T12:06:36.291Z,0.51
2023-04-29T12:07:36.289Z,0.51
2023-04-29T12:08:36.305Z,0.51
2023-04-29T12:09:36.285Z,0.51
2023-04-29T12:10:36.289Z,0.51
2023-04-29T12:11:36.296Z,0.51
2023-04-29T12:12:36.334Z,0.51
2023-04-29T12:13:36.243Z,0.52
2023-04-29T12:14:36.256Z,0.50
2023-04-29T12:15:37.413Z,0.52
2023-04-29T12:16:36.290Z,0.52
2023-04-29T12:17:36.283Z,0.52
2023-04-29T12:18:36.200Z,0.52
2023-04-29T12:19:36.209Z,0.52
2023-04-29T12:20:36.208Z,0.52
2023-04-29T12:21:36.226Z,0.51
2023-04-29T12:22:36.241Z,0.52
2023-04-29T12:23:36.202Z,0.51
2023-04-29T12:24:36.184Z,0.52
2023-04-29T12:25:36.225Z,0.51
2023-04-29T12:26:36.204Z,0.50
2023-04-29T12:27:36.168Z,0.51
2023-04-29T12:28:36.177Z,0.52
2023-04-29T12:29:36.132Z,0.51
2023-04-29T12:30:36.136Z,0.51
2023-04-29T12:31:36.159Z,0.51
2023-04-29T12:32:36.140Z,0.51
2023-04-29T12:33:36.124Z,0.52
2023-04-29T12:34:36.157Z,0.52
2023-04-29T12:35:36.116Z,0.51
2023-04-29T12:36:36.118Z,0.52
2023-04-29T12:37:36.082Z,0.52
2023-04-29T12:38:36.106Z,0.52
2023-04-29T12:39:36.094Z,0.52
2023-04-29T12:40:36.080Z,0.52
2023-04-29T12:41:36.070Z,0.52
2023-04-29T12:42:36.075Z,0.51
2023-04-29T12:43:36.071Z,0.51
2023-04-29T12:44:36.080Z,0.52
2023-04-29T12:45:36.033Z,0.52
2023-04-29T12:46:36.095Z,0.51
2023-04-29T12:47:36.052Z,0.51
2023-04-29T12:48:36.065Z,0.51
2023-04-29T12:49:36.008Z,0.50
2023-04-29T12:50:36.053Z,0.51
2023-04-29T12:51:36.021Z,0.51
2023-04-29T12:52:36.937Z,0.51
2023-04-29T12:53:35.982Z,0.53
2023-04-29T12:54:36.001Z,0.51
2023-04-29T12:55:36.050Z,0.51
2023-04-29T12:56:36.014Z,0.50
2023-04-29T12:57:35.960Z,0.51
2023-04-29T12:58:35.951Z,0.51
2023-04-29T12:59:35.976Z,0.50
2023-04-29T13:00:36.019Z,0.51
2023-04-29T13:01:35.969Z,0.51
2023-04-29T13:02:36.761Z,0.51
2023-04-29T13:03:36.162Z,0.50
2023-04-29T13:04:36.093Z,0.51
2023-04-29T13:05:35.906Z,0.52
2023-04-29T13:06:35.904Z,0.52
2023-04-29T13:07:37.059Z,0.51
2023-04-29T13:08:35.877Z,0.51
2023-04-29T13:09:35.907Z,0.50
2023-04-29T13:10:35.937Z,0.50
2023-04-29T13:11:35.906Z,0.51
2023-04-29T13:12:35.869Z,0.50
2023-04-29T13:13:35.977Z,0.51
2023-04-29T13:14:35.859Z,0.51
2023-04-29T13:15:35.877Z,0.51
2023-04-29T13:16:36.775Z,0.52
2023-04-29T13:17:35.866Z,0.52
2023-04-29T13:18:36.569Z,0.51
2023-04-29T13:19:50.299Z,0.50